createdAt,value
2023-05-04T00:00:11.835Z,6.20
2023-05-04T00:02:38.409Z,6.20
2023-05-04T00:05:05.993Z,6.20
2023-05-04T00:07:32.810Z,6.20
2023-05-04T00:09:59.763Z,6.10
2023-05-04T00:12:27.069Z,6.10
2023-05-04T00:14:54.318Z,6.00
2023-05-04T00:17:20.863Z,6.10
2023-05-04T00:19:47.459Z,6.00
2023-05-04T00:22:14.083Z,6.00
2023-05-04T00:24:40.745Z,6.10
2023-05-04T00:27:07.262Z,6.20
2023-05-04T00:29:33.831Z,6.40
2023-05-04T00:32:00.595Z,6.50
2023-05-04T00:34:27.291Z,6.60
2023-05-04T00:36:53.880Z,6.80
2023-05-04T00:39:20.388Z,6.90
2023-05-04T00:41:46.985Z,6.80
2023-05-04T00:44:14.100Z,6.90
2023-05-04T00:46:41.084Z,6.90
2023-05-04T00:49:08.282Z,6.90
2023-05-04T00:51:35.890Z,6.90
2023-05-04T00:54:02.666Z,6.80
2023-05-04T00:56:31.066Z,6.70
2023-05-04T00:58:58.410Z,6.60
2023-05-04T01:01:25.852Z,6.60
2023-05-04T01:03:54.199Z,6.60
2023-05-04T01:06:48.660Z,6.60
2023-05-04T01:09:27.393Z,6.60
2023-05-04T01:12:05.835Z,6.60
2023-05-04T01:14:34.371Z,6.70
2023-05-04T01:17:04.154Z,6.70
2023-05-04T01:19:31.454Z,6.70
2023-05-04T01:21:58.339Z,6.90
2023-05-04T01:24:25.636Z,7.00
2023-05-04T01:27:09.086Z,7.20
2023-05-04T01:29:42.781Z,7.20
2023-05-04T01:32:11.830Z,7.30
2023-05-04T01:34:40.411Z,7.30
2023-05-04T01:37:07.122Z,7.30
2023-05-04T01:39:34.016Z,7.30
2023-05-04T01:42:01.981Z,7.30
2023-05-04T01:44:28.690Z,7.30
2023-05-04T01:46:55.258Z,7.40
2023-05-04T01:49:21.935Z,7.40
2023-05-04T01:51:49.330Z,7.40
2023-05-04T01:54:15.897Z,7.40
2023-05-04T01:56:42.547Z,7.40
2023-05-04T01:59:09.390Z,7.40
2023-05-04T02:01:36.424Z,7.50
2023-05-04T02:04:03.516Z,7.40
2023-05-04T02:06:30.522Z,7.40
2023-05-04T02:08:57.068Z,7.40
2023-05-04T02:11:23.592Z,7.40
2023-05-04T02:13:50.490Z,7.30
2023-05-04T02:16:17.117Z,7.40
2023-05-04T02:18:43.665Z,7.40
2023-05-04T02:21:10.338Z,7.50
2023-05-04T02:23:36.995Z,7.40
2023-05-04T02:26:03.570Z,7.40
2023-05-04T02:28:30.082Z,7.40
2023-05-04T02:30:56.660Z,7.30
2023-05-04T02:33:23.203Z,7.30
2023-05-04T02:35:49.960Z,7.20
2023-05-04T02:38:16.457Z,7.20
2023-05-04T02:40:42.976Z,7.30
2023-05-04T02:43:09.486Z,7.30
2023-05-04T02:45:36.329Z,7.40
2023-05-04T02:48:03.254Z,7.40
2023-05-04T02:50:31.271Z,7.40
2023-05-04T02:52:57.854Z,7.40
2023-05-04T02:55:24.378Z,7.50
2023-05-04T02:57:50.918Z,7.50
2023-05-04T03:00:17.987Z,7.50
2023-05-04T03:02:44.572Z,7.60
2023-05-04T03:05:11.213Z,7.60
2023-05-04T03:07:38.745Z,7.60
2023-05-04T03:10:06.049Z,7.50
2023-05-04T03:12:32.890Z,7.50
2023-05-04T03:14:59.537Z,7.50
2023-05-04T03:17:26.064Z,7.50
2023-05-04T03:19:52.726Z,7.40
2023-05-04T03:22:19.261Z,7.40
2023-05-04T03:24:45.892Z,7.30
2023-05-04T03:27:12.845Z,7.30
2023-05-04T03:29:39.651Z,7.20
2023-05-04T03:32:06.601Z,7.20
2023-05-04T03:34:33.253Z,7.10
2023-05-04T03:36:59.998Z,7.10
2023-05-04T03:39:26.631Z,7.00
2023-05-04T03:41:53.280Z,7.00
2023-05-04T03:44:19.804Z,7.00
2023-05-04T03:46:46.344Z,7.00
2023-05-04T03:49:14.035Z,7.10
2023-05-04T03:51:40.553Z,7.10
2023-05-04T03:54:07.156Z,7.10
2023-05-04T03:56:33.740Z,7.10
2023-05-04T03:59:00.516Z,7.20
2023-05-04T04:01:27.194Z,7.20
2023-05-04T04:03:53.744Z,7.20
2023-05-04T04:06:20.619Z,7.30
2023-05-04T04:08:47.138Z,7.30
2023-05-04T04:11:13.716Z,7.30
2023-05-04T04:13:40.297Z,7.30
2023-05-04T04:16:07.040Z,7.30
2023-05-04T04:18:33.601Z,7.30
2023-05-04T04:21:00.763Z,7.30
2023-05-04T04:23:27.317Z,7.30
2023-05-04T04:25:53.984Z,7.40
2023-05-04T04:28:20.655Z,7.40
2023-05-04T04:30:48.015Z,7.50
2023-05-04T04:33:15.025Z,7.60
2023-05-04T04:35:41.839Z,7.60
2023-05-04T04:38:09.056Z,7.70
2023-05-04T04:40:36.115Z,7.70
2023-05-04T04:43:03.001Z,7.80
2023-05-04T04:45:29.959Z,7.90
2023-05-04T04:47:57.585Z,8.00
2023-05-04T04:50:24.097Z,8.00
2023-05-04T04:52:50.915Z,8.10
2023-05-04T04:55:17.894Z,8.10
2023-05-04T04:57:44.473Z,8.20
2023-05-04T05:00:11.521Z,8.20
2023-05-04T05:02:38.267Z,8.30
2023-05-04T05:05:05.514Z,8.40
2023-05-04T05:07:32.588Z,8.50
2023-05-04T05:09:59.257Z,8.50
2023-05-04T05:12:25.936Z,8.70
2023-05-04T05:14:52.669Z,8.80
2023-05-04T05:17:19.978Z,9.10
2023-05-04T05:19:46.731Z,9.20
2023-05-04T05:22:13.445Z,9.30
2023-05-04T05:24:40.263Z,9.30
2023-05-04T05:27:06.791Z,9.40
2023-05-04T05:29:33.390Z,9.40
2023-05-04T05:31:59.933Z,9.60
2023-05-04T05:34:27.062Z,9.50
2023-05-04T05:36:54.018Z,9.60
2023-05-04T05:39:21.073Z,9.70
2023-05-04T05:41:47.590Z,9.80
2023-05-04T05:44:14.306Z,9.90
2023-05-04T05:46:41.134Z,10.00
2023-05-04T05:49:07.731Z,10.20
2023-05-04T05:51:34.336Z,10.10
2023-05-04T05:54:00.912Z,10.10
2023-05-04T05:56:27.470Z,10.30
2023-05-04T05:58:54.050Z,10.40
2023-05-04T06:01:20.606Z,10.40
2023-05-04T06:03:47.675Z,10.50
2023-05-04T06:06:15.249Z,10.70
2023-05-04T06:08:42.289Z,11.00
2023-05-04T06:11:08.980Z,11.10
2023-05-04T06:13:35.529Z,11.10
2023-05-04T06:16:02.057Z,11.30
2023-05-04T06:18:28.616Z,11.10
2023-05-04T06:21:01.852Z,11.20
2023-05-04T06:23:29.463Z,11.30
2023-05-04T06:25:56.174Z,11.30
2023-05-04T06:28:22.844Z,11.30
2023-05-04T06:30:49.440Z,11.30
2023-05-04T06:33:16.045Z,11.60
2023-05-04T06:35:42.588Z,11.70
2023-05-04T06:38:09.186Z,11.80
2023-05-04T06:40:35.806Z,12.00
2023-05-04T06:43:02.568Z,12.00
2023-05-04T06:45:29.308Z,12.10
2023-05-04T06:47:55.966Z,12.40
2023-05-04T06:50:23.792Z,12.50
2023-05-04T06:52:50.674Z,12.90
2023-05-04T06:55:17.611Z,13.10
2023-05-04T06:57:44.150Z,13.10
2023-05-04T07:00:11.182Z,13.80
2023-05-04T07:02:37.738Z,14.00
2023-05-04T07:05:04.464Z,14.30
2023-05-04T07:07:31.126Z,14.50
2023-05-04T07:09:57.642Z,14.60
2023-05-04T07:12:24.178Z,15.10
2023-05-04T07:14:50.773Z,15.40
2023-05-04T07:17:17.594Z,15.70
2023-05-04T07:19:44.115Z,16.30
2023-05-04T07:22:10.648Z,16.70
2023-05-04T07:24:37.227Z,16.40
2023-05-04T07:27:03.865Z,16.50
2023-05-04T07:29:30.501Z,16.90
2023-05-04T07:31:57.096Z,17.00
2023-05-04T07:34:34.028Z,16.60
2023-05-04T07:37:08.822Z,17.00
2023-05-04T07:39:36.433Z,17.20
2023-05-04T07:42:04.033Z,16.90
2023-05-04T07:44:31.387Z,17.00
2023-05-04T07:46:58.901Z,16.90
2023-05-04T07:49:25.960Z,17.90
2023-05-04T07:51:52.898Z,17.60
2023-05-04T07:54:21.332Z,18.00
2023-05-04T07:56:49.124Z,18.00
2023-05-04T07:59:18.773Z,18.40
2023-05-04T08:01:46.606Z,17.40
2023-05-04T08:04:13.296Z,17.50
2023-05-04T08:06:39.792Z,17.20
2023-05-04T08:09:06.513Z,17.30
2023-05-04T08:11:34.565Z,17.50
2023-05-04T08:14:01.512Z,17.90
2023-05-04T08:16:29.173Z,18.50
2023-05-04T08:18:56.939Z,18.00
2023-05-04T08:21:23.571Z,18.00
2023-05-04T08:23:50.110Z,18.10
2023-05-04T08:26:17.049Z,18.30
2023-05-04T08:28:45.557Z,18.60
2023-05-04T08:31:15.712Z,18.80
2023-05-04T08:33:42.282Z,18.60
2023-05-04T08:36:09.440Z,18.80
2023-05-04T08:38:36.487Z,18.30
2023-05-04T08:41:06.497Z,18.00
2023-05-04T08:43:37.081Z,18.50
2023-05-04T08:46:06.480Z,19.30
2023-05-04T08:48:34.475Z,19.50
2023-05-04T08:51:02.376Z,19.80
2023-05-04T08:53:31.201Z,19.40
2023-05-04T08:56:03.920Z,19.50
2023-05-04T08:58:31.714Z,19.90
2023-05-04T09:01:01.621Z,19.90
2023-05-04T09:03:29.926Z,20.00
2023-05-04T09:05:57.358Z,20.50
2023-05-04T09:08:24.008Z,21.10
2023-05-04T09:10:50.536Z,21.30
2023-05-04T09:13:17.197Z,21.10
2023-05-04T09:15:57.262Z,21.30
2023-05-04T09:18:24.423Z,21.30
2023-05-04T09:20:50.942Z,21.90
2023-05-04T09:23:18.374Z,21.90
2023-05-04T09:25:48.550Z,22.20
2023-05-04T09:28:16.247Z,22.20
2023-05-04T09:30:43.183Z,22.70
2023-05-04T09:33:10.628Z,22.10
2023-05-04T09:35:40.953Z,22.00
2023-05-04T09:38:07.564Z,21.30
2023-05-04T09:40:41.922Z,21.50
2023-05-04T09:43:09.200Z,21.90
2023-05-04T09:45:46.175Z,22.10
2023-05-04T09:48:20.164Z,22.40
2023-05-04T09:50:57.797Z,22.00
2023-05-04T09:53:26.426Z,22.00
2023-05-04T09:56:17.551Z,22.90
2023-05-04T09:58:46.075Z,23.10
2023-05-04T10:01:13.005Z,23.10
2023-05-04T10:03:39.963Z,23.40
2023-05-04T10:06:08.740Z,23.20
2023-05-04T10:08:36.360Z,22.80
2023-05-04T10:11:02.955Z,23.20
2023-05-04T10:13:29.506Z,23.00
2023-05-04T10:16:39.788Z,23.10
2023-05-04T10:19:40.350Z,23.70
2023-05-04T10:22:18.809Z,25.20
2023-05-04T10:25:05.819Z,24.10
2023-05-04T10:27:43.969Z,23.90
2023-05-04T10:30:13.029Z,23.90
2023-05-04T10:32:41.017Z,25.10
2023-05-04T10:35:09.167Z,25.10
2023-05-04T10:37:37.530Z,25.00
2023-05-04T10:40:10.845Z,25.00
2023-05-04T10:42:42.543Z,25.20
2023-05-04T10:45:09.852Z,27.40
2023-05-04T10:47:40.561Z,25.30
2023-05-04T10:50:14.271Z,25.50
2023-05-04T10:52:51.913Z,25.30
2023-05-04T10:55:18.971Z,25.60
2023-05-04T10:57:53.158Z,24.90
2023-05-04T11:00:20.659Z,25.20
2023-05-04T11:02:48.761Z,25.40
2023-05-04T11:05:20.516Z,26.20
2023-05-04T11:07:50.741Z,26.70
2023-05-04T11:10:24.756Z,26.00
2023-05-04T11:12:52.022Z,26.30
2023-05-04T11:15:19.106Z,26.30
2023-05-04T11:17:50.462Z,26.50
2023-05-04T11:20:26.847Z,27.30
2023-05-04T11:22:54.571Z,27.50
2023-05-04T11:25:28.058Z,27.90
2023-05-04T11:27:54.625Z,27.80
2023-05-04T11:30:22.058Z,27.20
2023-05-04T11:32:51.610Z,27.30
2023-05-04T11:35:20.079Z,26.60
2023-05-04T11:37:47.295Z,26.80
2023-05-04T11:40:17.329Z,27.00
2023-05-04T11:42:44.207Z,27.20
2023-05-04T11:45:22.876Z,27.20
2023-05-04T11:47:51.095Z,27.30
2023-05-04T11:50:20.346Z,28.10
2023-05-04T11:52:47.727Z,27.80
2023-05-04T11:55:26.464Z,28.40
2023-05-04T11:58:00.632Z,28.20
2023-05-04T12:00:41.555Z,27.60
2023-05-04T12:03:14.527Z,28.20
2023-05-04T12:05:52.454Z,28.20
2023-05-04T12:08:31.371Z,28.10
2023-05-04T12:11:20.202Z,28.80
2023-05-04T12:13:48.537Z,28.20
2023-05-04T12:16:17.959Z,28.40
2023-05-04T12:18:46.061Z,27.60
2023-05-04T12:21:13.647Z,27.70
2023-05-04T12:23:41.255Z,28.70
2023-05-04T12:26:08.973Z,27.20
2023-05-04T12:28:36.513Z,27.50
2023-05-04T12:31:07.048Z,28.40
2023-05-04T12:33:34.962Z,29.50
2023-05-04T12:36:03.135Z,28.60
2023-05-04T12:38:29.905Z,28.20
2023-05-04T12:40:58.908Z,28.70
2023-05-04T12:43:25.883Z,29.30
2023-05-04T12:45:53.265Z,28.70
2023-05-04T12:48:20.782Z,28.90
2023-05-04T12:50:48.997Z,28.10
2023-05-04T12:53:16.268Z,28.40
2023-05-04T12:55:43.114Z,29.50
2023-05-04T12:58:09.747Z,28.10
2023-05-04T13:00:38.468Z,28.10
2023-05-04T13:03:05.780Z,28.20
2023-05-04T13:05:32.436Z,29.10
2023-05-04T13:07:59.126Z,28.60
2023-05-04T13:10:25.712Z,27.70
2023-05-04T13:12:52.374Z,28.10
2023-05-04T13:15:19.239Z,27.70
2023-05-04T13:17:45.799Z,27.70
2023-05-04T13:20:13.379Z,26.80
2023-05-04T13:22:40.573Z,26.80
2023-05-04T13:25:07.596Z,27.90
2023-05-04T13:27:34.886Z,27.90
2023-05-04T13:30:03.401Z,28.70
2023-05-04T13:32:30.965Z,28.10
2023-05-04T13:34:57.624Z,27.60
2023-05-04T13:37:24.163Z,27.50
2023-05-04T13:39:50.973Z,27.60
2023-05-04T13:42:17.807Z,28.40
2023-05-04T13:44:45.337Z,28.90
2023-05-04T13:47:16.324Z,28.40
2023-05-04T13:49:43.058Z,27.90
2023-05-04T13:52:09.655Z,28.40
2023-05-04T13:54:37.078Z,28.20
2023-05-04T13:57:04.334Z,28.20
2023-05-04T13:59:30.952Z,28.40
2023-05-04T14:01:57.506Z,27.90
2023-05-04T14:04:24.264Z,28.20
2023-05-04T14:06:51.767Z,29.40
2023-05-04T14:09:19.158Z,29.00
2023-05-04T14:11:46.201Z,28.80
2023-05-04T14:14:12.755Z,28.20
2023-05-04T14:16:40.021Z,29.00
2023-05-04T14:19:06.730Z,28.30
2023-05-04T14:21:33.315Z,29.70
2023-05-04T14:23:59.894Z,28.60
2023-05-04T14:26:26.400Z,28.50
2023-05-04T14:28:52.950Z,27.60
2023-05-04T14:31:19.658Z,27.50
2023-05-04T14:33:46.209Z,27.60
2023-05-04T14:36:12.865Z,27.40
2023-05-04T14:38:39.516Z,27.80
2023-05-04T14:41:07.455Z,28.00
2023-05-04T14:43:34.533Z,28.00
2023-05-04T14:46:01.909Z,27.50
2023-05-04T14:48:28.795Z,27.40
2023-05-04T14:50:55.716Z,28.20
2023-05-04T14:53:23.221Z,29.00
2023-05-04T14:55:50.527Z,29.10
2023-05-04T14:58:17.486Z,29.00
2023-05-04T15:00:45.112Z,29.30
2023-05-04T15:03:11.921Z,29.30
2023-05-04T15:05:38.920Z,30.10
2023-05-04T15:08:05.667Z,29.60
2023-05-04T15:10:32.470Z,29.60
2023-05-04T15:12:59.849Z,29.60
2023-05-04T15:15:26.562Z,28.80
2023-05-04T15:17:53.263Z,28.90
2023-05-04T15:20:19.882Z,29.00
2023-05-04T15:22:47.243Z,29.60
2023-05-04T15:25:13.777Z,29.20
2023-05-04T15:27:40.741Z,30.10
2023-05-04T15:30:08.859Z,31.10
2023-05-04T15:32:35.726Z,31.00
2023-05-04T15:35:05.807Z,29.40
2023-05-04T15:37:32.871Z,28.80
2023-05-04T15:40:02.009Z,28.70
2023-05-04T15:42:29.121Z,28.70
2023-05-04T15:44:55.614Z,28.20
2023-05-04T15:47:22.278Z,28.50
2023-05-04T15:49:48.983Z,28.50
2023-05-04T15:52:15.540Z,28.50
2023-05-04T15:54:42.097Z,28.30
2023-05-04T15:57:08.681Z,28.30
2023-05-04T15:59:35.197Z,28.60
2023-05-04T16:02:05.742Z,27.90
2023-05-04T16:04:33.137Z,28.00
2023-05-04T16:06:59.651Z,27.30
2023-05-04T16:09:27.196Z,27.00
2023-05-04T16:11:53.691Z,26.70
2023-05-04T16:14:20.470Z,26.40
2023-05-04T16:16:47.052Z,25.90
2023-05-04T16:19:13.675Z,25.50
2023-05-04T16:21:40.204Z,25.20
2023-05-04T16:24:07.541Z,25.00
2023-05-04T16:26:34.154Z,24.80
2023-05-04T16:29:00.715Z,24.70
2023-05-04T16:31:27.266Z,24.80
2023-05-04T16:33:53.826Z,25.10
2023-05-04T16:36:20.548Z,24.90
2023-05-04T16:38:48.327Z,24.80
2023-05-04T16:41:16.220Z,24.80
2023-05-04T16:43:42.744Z,25.00
2023-05-04T16:46:09.442Z,25.30
2023-05-04T16:48:37.814Z,25.60
2023-05-04T16:51:05.656Z,26.20
2023-05-04T16:53:32.169Z,26.30
2023-05-04T16:55:58.682Z,26.30
2023-05-04T16:58:25.521Z,26.40
2023-05-04T17:00:52.072Z,26.20
2023-05-04T17:03:18.675Z,26.50
2023-05-04T17:05:45.330Z,26.70
2023-05-04T17:08:12.519Z,26.60
2023-05-04T17:10:39.420Z,26.90
2023-05-04T17:13:07.002Z,26.60
2023-05-04T17:15:33.521Z,26.40
2023-05-04T17:18:00.496Z,26.00
2023-05-04T17:20:31.709Z,26.40
2023-05-04T17:22:58.559Z,26.20
2023-05-04T17:25:28.270Z,26.30
2023-05-04T17:27:55.412Z,26.10
2023-05-04T17:30:23.218Z,26.30
2023-05-04T17:32:50.088Z,26.50
2023-05-04T17:35:25.336Z,26.80
2023-05-04T17:37:58.579Z,26.80
2023-05-04T17:40:27.347Z,26.60
2023-05-04T17:42:54.349Z,26.40
2023-05-04T17:45:21.364Z,25.70
2023-05-04T17:47:50.786Z,25.00
2023-05-04T17:50:17.587Z,24.60
2023-05-04T17:52:44.079Z,24.20
2023-05-04T17:55:11.178Z,23.60
2023-05-04T17:57:37.752Z,23.60
2023-05-04T18:00:07.193Z,23.00
2023-05-04T18:02:34.026Z,22.90
2023-05-04T18:05:00.676Z,22.60
2023-05-04T18:07:27.190Z,22.40
2023-05-04T18:09:53.785Z,22.30
2023-05-04T18:12:20.537Z,21.90
2023-05-04T18:14:47.194Z,21.70
2023-05-04T18:17:13.811Z,21.40
2023-05-04T18:19:40.586Z,21.20
2023-05-04T18:22:07.419Z,21.20
2023-05-04T18:24:34.178Z,21.10
2023-05-04T18:27:01.768Z,20.90
2023-05-04T18:29:28.303Z,20.80
2023-05-04T18:31:54.853Z,20.80
2023-05-04T18:34:21.384Z,20.60
2023-05-04T18:36:49.252Z,20.50
2023-05-04T18:39:15.972Z,20.50
2023-05-04T18:41:42.492Z,20.50
2023-05-04T18:44:09.879Z,20.40
2023-05-04T18:46:36.406Z,20.20
2023-05-04T18:49:03.060Z,20.10
2023-05-04T18:51:29.676Z,20.00
2023-05-04T18:53:56.200Z,19.90
2023-05-04T18:56:22.965Z,19.80
2023-05-04T18:58:49.664Z,19.70
2023-05-04T19:01:16.388Z,19.70
2023-05-04T19:03:44.803Z,19.60
2023-05-04T19:06:11.554Z,19.70
2023-05-04T19:08:38.091Z,19.60
2023-05-04T19:11:04.686Z,19.60
2023-05-04T19:13:31.261Z,19.50
2023-05-04T19:15:57.780Z,19.40
2023-05-04T19:18:24.475Z,19.50
2023-05-04T19:20:51.210Z,19.40
2023-05-04T19:23:17.995Z,19.30
2023-05-04T19:25:45.182Z,19.20
2023-05-04T19:28:12.009Z,19.10
2023-05-04T19:30:40.200Z,19.20
2023-05-04T19:33:08.203Z,19.10
2023-05-04T19:35:35.022Z,19.00
2023-05-04T19:38:01.628Z,18.90
2023-05-04T19:40:28.556Z,18.70
2023-05-04T19:42:55.102Z,18.60
2023-05-04T19:45:21.631Z,18.40
2023-05-04T19:47:50.356Z,18.40
2023-05-04T19:50:17.803Z,18.30
2023-05-04T19:52:44.425Z,18.30
2023-05-04T19:55:11.138Z,18.30
2023-05-04T19:57:37.777Z,18.30
2023-05-04T20:00:05.242Z,18.20
2023-05-04T20:02:32.588Z,18.10
2023-05-04T20:04:59.257Z,18.00
2023-05-04T20:07:26.035Z,18.00
2023-05-04T20:09:52.651Z,18.00
2023-05-04T20:12:19.228Z,17.90
2023-05-04T20:14:45.787Z,18.00
2023-05-04T20:17:12.325Z,17.90
2023-05-04T20:19:40.446Z,17.90
2023-05-04T20:22:07.190Z,17.80
2023-05-04T20:24:33.964Z,17.80
2023-05-04T20:27:00.608Z,17.80
2023-05-04T20:29:27.367Z,17.60
2023-05-04T20:31:54.013Z,17.60
2023-05-04T20:34:20.591Z,17.50
2023-05-04T20:36:47.169Z,17.50
2023-05-04T20:39:13.752Z,17.50
2023-05-04T20:41:40.884Z,17.50
2023-05-04T20:44:07.451Z,17.40
2023-05-04T20:46:34.149Z,17.30
2023-05-04T20:49:02.676Z,17.20
2023-05-04T20:51:29.592Z,17.20
2023-05-04T20:53:56.598Z,17.20
2023-05-04T20:56:23.257Z,17.10
2023-05-04T20:58:50.537Z,17.20
2023-05-04T21:01:17.114Z,17.20
2023-05-04T21:03:44.247Z,17.20
2023-05-04T21:06:12.045Z,17.10
2023-05-04T21:08:39.169Z,17.00
2023-05-04T21:11:06.424Z,16.90
2023-05-04T21:13:33.004Z,17.00
2023-05-04T21:15:59.677Z,16.90
2023-05-04T21:18:26.277Z,16.80
2023-05-04T21:20:52.874Z,16.90
2023-05-04T21:23:19.459Z,16.80
2023-05-04T21:25:45.970Z,16.80
2023-05-04T21:28:12.474Z,16.70
2023-05-04T21:30:42.581Z,16.70
2023-05-04T21:33:09.167Z,16.60
2023-05-04T21:35:35.686Z,16.60
2023-05-04T21:38:02.253Z,16.70
2023-05-04T21:40:28.936Z,16.70
2023-05-04T21:42:55.579Z,16.70
2023-05-04T21:45:22.116Z,16.60
2023-05-04T21:47:48.937Z,16.60
2023-05-04T21:50:16.069Z,16.70
2023-05-04T21:52:42.577Z,16.50
2023-05-04T21:55:09.300Z,16.50
2023-05-04T21:57:35.925Z,16.40
2023-05-04T22:00:02.547Z,16.40
2023-05-04T22:02:29.088Z,16.50
2023-05-04T22:04:55.889Z,16.50
2023-05-04T22:07:22.643Z,16.40
2023-05-04T22:09:49.752Z,16.40
2023-05-04T22:12:16.443Z,16.50
2023-05-04T22:14:42.985Z,16.70
2023-05-04T22:17:09.523Z,16.90
2023-05-04T22:19:36.035Z,17.00
2023-05-04T22:22:02.613Z,17.10
2023-05-04T22:24:29.616Z,17.20
2023-05-04T22:26:56.507Z,17.20
2023-05-04T22:29:23.226Z,17.20
2023-05-04T22:31:49.791Z,17.40
2023-05-04T22:34:16.331Z,17.40
2023-05-04T22:36:42.824Z,17.60
2023-05-04T22:39:09.349Z,17.70
2023-05-04T22:41:36.429Z,17.80
2023-05-04T22:44:02.987Z,17.80
2023-05-04T22:46:29.635Z,18.00
2023-05-04T22:48:56.432Z,18.00
2023-05-04T22:51:23.033Z,18.00
2023-05-04T22:53:50.891Z,18.00
2023-05-04T22:56:17.419Z,18.10
2023-05-04T22:58:45.603Z,18.10
2023-05-04T23:01:12.168Z,18.10
2023-05-04T23:03:39.258Z,18.20
2023-05-04T23:06:06.342Z,18.30
2023-05-04T23:08:32.891Z,18.20
2023-05-04T23:10:59.411Z,18.30
2023-05-04T23:13:26.000Z,18.30
2023-05-04T23:15:53.068Z,18.30
2023-05-04T23:18:19.667Z,18.20
2023-05-04T23:20:46.204Z,18.20
2023-05-04T23:23:13.225Z,18.20
2023-05-04T23:25:39.718Z,18.30
2023-05-04T23:28:06.273Z,18.30
2023-05-04T23:30:32.777Z,18.40
2023-05-04T23:32:59.346Z,18.30
2023-05-04T23:35:26.858Z,18.40
2023-05-04T23:37:53.600Z,18.30
2023-05-04T23:40:20.753Z,18.30
2023-05-04T23:42:52.816Z,18.30
2023-05-04T23:45:19.477Z,18.20
2023-05-04T23:47:46.072Z,18.10
2023-05-04T23:50:12.804Z,18.00
2023-05-04T23:52:39.361Z,18.00
2023-05-04T23:55:06.490Z,17.90
2023-05-04T23:57:33.270Z,17.90
